sensor_id;sensor_type;location;lat;lon;timestamp;pressure;altitude;pressure_sealevel;temperature;humidity
62011;BME280;47967;51.756;10.174;2023-12-20T05:01:35;99319.38;;;5.81;100.00
62011;BME280;47967;51.756;10.174;2023-12-20T05:05:38;99317.53;;;5.82;100.00
62011;BME280;47967;51.756;10.174;2023-12-20T05:09:40;99328.91;;;5.84;100.00
62011;BME280;47967;51.756;10.174;2023-12-20T05:13:44;99324.38;;;5.84;100.00
62011;BME280;47967;51.756;10.174;2023-12-20T05:17:52;99320.69;;;5.85;100.00
62011;BME280;47967;51.756;10.174;2023-12-20T05:21:55;99310.47;;;5.66;100.00
62011;BME280;47967;51.756;10.174;2023-12-20T05:25:57;99314.44;;;5.47;100.00
62011;BME280;47967;51.756;10.174;2023-12-20T05:30:01;99303.59;;;5.48;100.00
62011;BME280;47967;51.756;10.174;2023-12-20T05:34:07;99303.69;;;5.55;100.00
62011;BME280;47967;51.756;10.174;2023-12-20T05:38:10;99308.56;;;5.51;100.00
62011;BME280;47967;51.756;10.174;2023-12-20T05:42:13;99310.25;;;5.52;100.00
62011;BME280;47967;51.756;10.174;2023-12-20T05:46:16;99305.22;;;5.49;100.00
62011;BME280;47967;51.756;10.174;2023-12-20T05:50:20;99296.91;;;5.44;100.00
62011;BME280;47967;51.756;10.174;2023-12-20T05:54:23;99312.72;;;5.54;100.00
62011;BME280;47967;51.756;10.174;2023-12-20T05:58:25;99310.91;;;5.54;100.00
62011;BME280;47967;51.756;10.174;2023-12-20T06:02:28;99311.91;;;5.53;100.00
62011;BME280;47967;51.756;10.174;2023-12-20T06:06:32;99301.84;;;5.55;100.00
62011;BME280;47967;51.756;10.174;2023-12-20T06:10:34;99301.19;;;5.53;100.00
62011;BME280;47967;51.756;10.174;2023-12-20T06:14:37;99309.19;;;5.61;100.00
62011;BME280;47967;51.756;10.174;2023-12-20T06:18:40;99303.91;;;5.68;100.00
62011;BME280;47967;51.756;10.174;2023-12-20T06:22:44;99307.53;;;5.75;100.00
62011;BME280;47967;51.756;10.174;2023-12-20T06:26:47;99306.81;;;5.82;100.00
62011;BME280;47967;51.756;10.174;2023-12-20T06:30:49;99311.84;;;5.85;100.00
62011;BME280;47967;51.756;10.174;2023-12-20T06:34:54;99312.13;;;5.90;100.00
62011;BME280;47967;51.756;10.174;2023-12-20T06:38:58;99310.97;;;5.84;100.00
62011;BME280;47967;51.756;10.174;2023-12-20T06:43:01;99318.56;;;5.96;100.00
62011;BME280;47967;51.756;10.174;2023-12-20T06:47:16;99313.41;;;5.94;100.00
62011;BME280;47967;51.756;10.174;2023-12-20T06:51:19;99312.84;;;5.84;100.00
62011;BME280;47967;51.756;10.174;2023-12-20T06:55:23;99316.63;;;5.89;100.00
62011;BME280;47967;51.756;10.174;2023-12-20T06:59:26;99310.91;;;5.92;100.00
62011;BME280;47967;51.756;10.174;2023-12-20T07:03:28;99294.47;;;5.96;100.00
62011;BME280;47967;51.756;10.174;2023-12-20T07:07:31;99304.63;;;5.85;100.00
62011;BME280;47967;51.756;10.174;2023-12-20T07:11:35;99299.75;;;5.89;100.00
62011;BME280;47967;51.756;10.174;2023-12-20T07:15:38;99295.03;;;5.91;100.00
62011;BME280;47967;51.756;10.174;2023-12-20T07:19:41;99297.53;;;5.92;100.00
62011;BME280;47967;51.756;10.174;2023-12-20T07:23:44;99306.03;;;5.96;100.00
62011;BME280;47967;51.756;10.174;2023-12-20T07:27:48;99325.44;;;5.98;100.00
62011;BME280;47967;51.756;10.174;2023-12-20T07:31:52;99333.53;;;5.90;100.00
62011;BME280;47967;51.756;10.174;2023-12-20T07:35:55;99335.13;;;5.76;100.00
62011;BME280;47967;51.756;10.174;2023-12-20T07:39:58;99329.31;;;5.72;100.00
62011;BME280;47967;51.756;10.174;2023-12-20T07:44:03;99321.41;;;5.79;100.00
62011;BME280;47967;51.756;10.174;2023-12-20T07:48:07;99329.72;;;5.84;100.00
62011;BME280;47967;51.756;10.174;2023-12-20T07:52:09;99337.50;;;5.94;100.00
62011;BME280;47967;51.756;10.174;2023-12-20T07:56:16;99334.19;;;5.92;100.00
62011;BME280;47967;51.756;10.174;2023-12-20T08:00:20;99336.16;;;5.98;100.00
62011;BME280;47967;51.756;10.174;2023-12-20T08:04:23;99350.06;;;5.93;100.00
62011;BME280;47967;51.756;10.174;2023-12-20T08:08:26;99336.41;;;5.88;100.00
62011;BME280;47967;51.756;10.174;2023-12-20T08:12:29;99335.13;;;5.99;100.00
62011;BME280;47967;51.756;10.174;2023-12-20T08:16:33;99339.97;;;6.04;100.00
62011;BME280;47967;51.756;10.174;2023-12-20T08:20:36;99334.88;;;6.09;100.00
62011;BME280;47967;51.756;10.174;2023-12-20T08:24:41;99347.38;;;6.17;100.00
62011;BME280;47967;51.756;10.174;2023-12-20T08:28:44;99350.06;;;6.17;100.00
62011;BME280;47967;51.756;10.174;2023-12-20T08:32:49;99344.72;;;6.17;100.00
62011;BME280;47967;51.756;10.174;2023-12-20T08:36:51;99337.13;;;6.20;100.00
62011;BME280;47967;51.756;10.174;2023-12-20T08:40:54;99340.09;;;6.11;100.00
62011;BME280;47967;51.756;10.174;2023-12-20T08:44:57;99332.03;;;6.11;100.00
62011;BME280;47967;51.756;10.174;2023-12-20T08:49:02;99321.97;;;6.13;100.00
62011;BME280;47967;51.756;10.174;2023-12-20T08:53:06;99334.47;;;6.20;100.00
62011;BME280;47967;51.756;10.174;2023-12-20T08:57:09;99325.97;;;6.32;100.00
62011;BME280;47967;51.756;10.174;2023-12-20T09:01:12;99319.13;;;6.29;100.00
62011;BME280;47967;51.756;10.174;2023-12-20T09:05:16;99331.72;;;6.29;100.00
62011;BME280;47967;51.756;10.174;2023-12-20T09:09:19;99334.09;;;6.23;100.00
62011;BME280;47967;51.756;10.174;2023-12-20T09:13:21;99320.59;;;6.17;100.00
62011;BME280;47967;51.756;10.174;2023-12-20T09:17:29;99325.28;;;6.15;100.00
62011;BME280;47967;51.756;10.174;2023-12-20T09:21:36;99327.63;;;6.18;100.00
62011;BME280;47967;51.756;10.174;2023-12-20T09:25:38;99314.97;;;6.27;100.00
62011;BME280;47967;51.756;10.174;2023-12-20T09:29:41;99316.53;;;6.36;100.00
62011;BME280;47967;51.756;10.174;2023-12-20T09:33:44;99313.22;;;6.49;100.00
62011;BME280;47967;51.756;10.174;2023-12-20T09:37:49;99314.25;;;6.48;100.00
62011;BME280;47967;51.756;10.174;2023-12-20T09:42:00;99307.69;;;6.50;100.00
62011;BME280;47967;51.756;10.174;2023-12-20T09:46:05;99309.72;;;6.63;100.00
62011;BME280;47967;51.756;10.174;2023-12-20T09:50:09;99302.41;;;6.57;100.00
62011;BME280;47967;51.756;10.174;2023-12-20T09:54:13;99300.47;;;6.66;100.00
62011;BME280;47967;51.756;10.174;2023-12-20T09:58:16;99291.78;;;6.64;100.00
62011;BME280;47967;51.756;10.174;2023-12-20T10:02:23;99290.31;;;6.61;100.00
62011;BME280;47967;51.756;10.174;2023-12-20T10:06:28;99278.03;;;6.52;100.00
62011;BME280;47967;51.756;10.174;2023-12-20T10:10:32;99274.25;;;6.46;100.00
62011;BME280;47967;51.756;10.174;2023-12-20T10:14:46;99271.09;;;6.43;100.00
62011;BME280;47967;51.756;10.174;2023-12-20T10:18:49;99276.91;;;6.46;100.00
62011;BME280;47967;51.756;10.174;2023-12-20T10:22:52;99276.44;;;6.43;100.00
62011;BME280;47967;51.756;10.174;2023-12-20T10:27:03;99262.03;;;6.44;100.00
62011;BME280;47967;51.756;10.174;2023-12-20T10:31:06;99260.56;;;6.41;100.00
62011;BME280;47967;51.756;10.174;2023-12-20T10:35:09;99251.69;;;6.40;100.00
62011;BME280;47967;51.756;10.174;2023-12-20T10:39:14;99242.09;;;6.46;100.00
62011;BME280;47967;51.756;10.174;2023-12-20T10:43:19;99243.47;;;6.42;100.00
62011;BME280;47967;51.756;10.174;2023-12-20T10:47:24;99238.38;;;6.47;100.00
62011;BME280;47967;51.756;10.174;2023-12-20T10:51:28;99236.69;;;6.61;100.00
62011;BME280;47967;51.756;10.174;2023-12-20T10:55:31;99236.78;;;6.68;100.00
62011;BME280;47967;51.756;10.174;2023-12-20T10:59:37;99244.72;;;6.61;100.00
62011;BME280;47967;51.756;10.174;2023-12-20T11:03:43;99225.50;;;6.57;100.00
62011;BME280;47967;51.756;10.174;2023-12-20T11:07:48;99219.25;;;6.50;100.00
62011;BME280;47967;51.756;10.174;2023-12-20T11:12:01;99214.72;;;6.36;100.00
62011;BME280;47967;51.756;10.174;2023-12-20T11:16:07;99221.38;;;6.40;100.00
62011;BME280;47967;51.756;10.174;2023-12-20T11:20:10;99205.13;;;6.41;100.00
62011;BME280;47967;51.756;10.174;2023-12-20T11:24:15;99197.63;;;6.37;100.00
62011;BME280;47967;51.756;10.174;2023-12-20T11:28:21;99182.97;;;6.33;100.00
62011;BME280;47967;51.756;10.174;2023-12-20T11:32:34;99185.53;;;6.41;100.00
62011;BME280;47967;51.756;10.174;2023-12-20T11:36:36;99178.72;;;6.23;100.00
62011;BME280;47967;51.756;10.174;2023-12-20T11:40:41;99171.69;;;6.22;100.00
62011;BME280;47967;51.756;10.174;2023-12-20T11:44:44;99161.28;;;6.28;100.00
62011;BME280;47967;51.756;10.174;2023-12-20T11:48:48;99145.19;;;6.28;100.00
62011;BME280;47967;51.756;10.174;2023-12-20T11:52:52;99145.66;;;6.31;100.00
62011;BME280;47967;51.756;10.174;2023-12-20T11:56:55;99160.97;;;6.22;100.00
62011;BME280;47967;51.756;10.174;2023-12-20T12:00:59;99159.97;;;6.23;100.00
62011;BME280;47967;51.756;10.174;2023-12-20T12:05:03;99162.66;;;6.38;100.00
62011;BME280;47967;51.756;10.174;2023-12-20T12:09:07;99144.25;;;6.35;100.00
62011;BME280;47967;51.756;10.174;2023-12-20T12:13:09;99149.16;;;6.32;100.00
62011;BME280;47967;51.756;10.174;2023-12-20T12:17:13;99139.25;;;6.32;100.00
62011;BME280;47967;51.756;10.174;2023-12-20T12:21:19;99133.53;;;6.35;100.00
62011;BME280;47967;51.756;10.174;2023-12-20T12:25:28;99136.22;;;6.35;100.00
62011;BME280;47967;51.756;10.174;2023-12-20T12:29:31;99126.44;;;6.28;100.00
62011;BME280;47967;51.756;10.174;2023-12-20T12:33:34;99123.78;;;6.13;100.00
62011;BME280;47967;51.756;10.174;2023-12-20T12:37:39;99121.56;;;6.16;100.00
62011;BME280;47967;51.756;10.174;2023-12-20T12:41:43;99108.00;;;6.18;100.00
62011;BME280;47967;51.756;10.174;2023-12-20T12:45:45;99096.69;;;6.22;100.00
62011;BME280;47967;51.756;10.174;2023-12-20T12:49:51;99090.59;;;6.29;100.00
62011;BME280;47967;51.756;10.174;2023-12-20T12:53:55;99090.91;;;6.40;100.00
62011;BME280;47967;51.756;10.174;2023-12-20T12:57:58;99087.69;;;6.45;100.00
62011;BME280;47967;51.756;10.174;2023-12-20T13:02:01;99093.69;;;6.47;100.00
62011;BME280;47967;51.756;10.174;2023-12-20T13:06:04;99100.97;;;6.53;100.00
62011;BME280;47967;51.756;10.174;2023-12-20T13:10:09;99087.28;;;6.70;100.00
62011;BME280;47967;51.756;10.174;2023-12-20T13:14:12;99088.25;;;6.84;100.00
62011;BME280;47967;51.756;10.174;2023-12-20T13:18:16;99081.44;;;6.81;100.00
62011;BME280;47967;51.756;10.174;2023-12-20T13:22:20;99079.25;;;6.92;100.00
62011;BME280;47967;51.756;10.174;2023-12-20T13:26:24;99059.13;;;7.02;100.00
62011;BME280;47967;51.756;10.174;2023-12-20T13:30:27;99073.19;;;7.04;100.00
62011;BME280;47967;51.756;10.174;2023-12-20T13:34:29;99072.75;;;7.08;100.00
62011;BME280;47967;51.756;10.174;2023-12-20T13:38:32;99075.69;;;7.13;100.00
62011;BME280;47967;51.756;10.174;2023-12-20T13:42:36;99075.31;;;7.16;100.00
62011;BME280;47967;51.756;10.174;2023-12-20T13:46:39;99072.63;;;7.16;100.00
62011;BME280;47967;51.756;10.174;2023-12-20T13:50:42;99070.28;;;7.06;100.00
62011;BME280;47967;51.756;10.174;2023-12-20T13:54:45;99070.94;;;7.08;100.00
62011;BME280;47967;51.756;10.174;2023-12-20T13:58:49;99079.16;;;7.07;100.00
62011;BME280;47967;51.756;10.174;2023-12-20T14:02:53;99069.97;;;6.94;100.00
62011;BME280;47967;51.756;10.174;2023-12-20T14:06:55;99079.75;;;7.02;100.00
62011;BME280;47967;51.756;10.174;2023-12-20T14:10:58;99062.19;;;6.99;100.00
62011;BME280;47967;51.756;10.174;2023-12-20T14:15:04;99059.13;;;7.02;100.00
62011;BME280;47967;51.756;10.174;2023-12-20T14:19:12;99066.69;;;6.92;100.00
62011;BME280;47967;51.756;10.174;2023-12-20T14:23:15;99086.03;;;6.87;100.00
62011;BME280;47967;51.756;10.174;2023-12-20T14:27:17;99087.81;;;6.80;100.00
62011;BME280;47967;51.756;10.174;2023-12-20T14:31:25;99087.13;;;6.71;100.00
62011;BME280;47967;51.756;10.174;2023-12-20T14:35:27;99096.25;;;6.55;100.00
62011;BME280;47967;51.756;10.174;2023-12-20T14:39:30;99111.13;;;6.21;100.00
62011;BME280;47967;51.756;10.174;2023-12-20T14:43:33;99126.22;;;5.24;100.00
62011;BME280;47967;51.756;10.174;2023-12-20T14:47:37;99116.00;;;4.67;100.00
62011;BME280;47967;51.756;10.174;2023-12-20T14:51:39;99135.16;;;4.47;100.00
62011;BME280;47967;51.756;10.174;2023-12-20T14:55:42;99138.06;;;4.37;100.00
62011;BME280;47967;51.756;10.174;2023-12-20T14:59:45;99133.06;;;4.34;100.00
62011;BME280;47967;51.756;10.174;2023-12-20T15:03:48;99133.09;;;4.26;100.00
62011;BME280;47967;51.756;10.174;2023-12-20T15:07:51;99150.31;;;4.23;100.00
62011;BME280;47967;51.756;10.174;2023-12-20T15:11:54;99154.59;;;4.32;100.00
62011;BME280;47967;51.756;10.174;2023-12-20T15:15:56;99138.88;;;4.38;100.00
62011;BME280;47967;51.756;10.174;2023-12-20T15:20:01;99142.84;;;4.42;100.00
62011;BME280;47967;51.756;10.174;2023-12-20T15:24:04;99131.13;;;4.51;100.00
62011;BME280;47967;51.756;10.174;2023-12-20T15:28:14;99125.53;;;4.38;100.00
62011;BME280;47967;51.756;10.174;2023-12-20T15:32:17;99141.22;;;4.41;100.00
62011;BME280;47967;51.756;10.174;2023-12-20T15:36:22;99139.25;;;4.35;100.00
62011;BME280;47967;51.756;10.174;2023-12-20T15:40:25;99147.06;;;4.36;100.00
62011;BME280;47967;51.756;10.174;2023-12-20T15:44:27;99147.91;;;4.37;100.00
62011;BME280;47967;51.756;10.174;2023-12-20T15:48:30;99141.22;;;4.41;100.00
62011;BME280;47967;51.756;10.174;2023-12-20T15:52:34;99136.41;;;4.36;100.00
62011;BME280;47967;51.756;10.174;2023-12-20T15:56:38;99140.72;;;4.37;100.00
62011;BME280;47967;51.756;10.174;2023-12-20T16:00:42;99130.19;;;4.36;100.00
62011;BME280;47967;51.756;10.174;2023-12-20T16:04:46;99132.72;;;4.37;100.00
62011;BME280;47967;51.756;10.174;2023-12-20T16:08:50;99124.78;;;4.52;100.00
62011;BME280;47967;51.756;10.174;2023-12-20T16:12:53;99112.56;;;4.58;100.00
62011;BME280;47967;51.756;10.174;2023-12-20T16:16:56;99120.03;;;4.62;100.00
62011;BME280;47967;51.756;10.174;2023-12-20T16:21:00;99123.78;;;4.53;100.00
62011;BME280;47967;51.756;10.174;2023-12-20T16:25:06;99127.22;;;4.62;100.00
62011;BME280;47967;51.756;10.174;2023-12-20T16:29:09;99125.13;;;4.72;100.00
62011;BME280;47967;51.756;10.174;2023-12-20T16:33:14;99116.63;;;4.69;100.00
62011;BME280;47967;51.756;10.174;2023-12-20T16:37:17;99127.16;;;4.70;100.00
62011;BME280;47967;51.756;10.174;2023-12-20T16:41:21;99131.03;;;4.68;100.00
62011;BME280;47967;51.756;10.174;2023-12-20T16:45:24;99111.63;;;4.74;100.00
62011;BME280;47967;51.756;10.174;2023-12-20T16:49:26;99108.09;;;4.73;100.00
62011;BME280;47967;51.756;10.174;2023-12-20T16:53:29;99101.03;;;4.80;100.00
62011;BME280;47967;51.756;10.174;2023-12-20T16:57:33;99111.91;;;4.79;100.00
62011;BME280;47967;51.756;10.174;2023-12-20T17:01:37;99105.19;;;4.83;100.00
62011;BME280;47967;51.756;10.174;2023-12-20T17:05:39;99113.66;;;4.87;100.00
62011;BME280;47967;51.756;10.174;2023-12-20T17:09:42;99098.56;;;4.94;100.00
62011;BME280;47967;51.756;10.174;2023-12-20T17:13:47;99091.03;;;4.97;100.00
62011;BME280;47967;51.756;10.174;2023-12-20T17:17:50;99091.22;;;4.96;100.00
62011;BME280;47967;51.756;10.174;2023-12-20T17:21:53;99072.97;;;5.00;100.00
62011;BME280;47967;51.756;10.174;2023-12-20T17:25:55;99070.03;;;4.94;100.00
62011;BME280;47967;51.756;10.174;2023-12-20T17:29:59;99071.97;;;5.01;100.00
62011;BME280;47967;51.756;10.174;2023-12-20T17:34:02;99070.97;;;5.02;100.00
62011;BME280;47967;51.756;10.174;2023-12-20T17:38:06;99067.09;;;5.04;100.00
62011;BME280;47967;51.756;10.174;2023-12-20T17:42:09;99069.19;;;5.09;100.00
62011;BME280;47967;51.756;10.174;2023-12-20T17:46:16;99066.72;;;5.07;100.00
62011;BME280;47967;51.756;10.174;2023-12-20T17:50:19;99069.66;;;5.12;100.00
62011;BME280;47967;51.756;10.174;2023-12-20T17:54:22;99072.53;;;5.11;100.00
62011;BME280;47967;51.756;10.174;2023-12-20T17:58:25;99083.69;;;5.15;100.00
62011;BME280;47967;51.756;10.174;2023-12-20T18:02:29;99084.63;;;5.22;100.00
62011;BME280;47967;51.756;10.174;2023-12-20T18:06:32;99057.22;;;5.20;100.00
62011;BME280;47967;51.756;10.174;2023-12-20T18:10:34;99060.09;;;5.18;100.00
62011;BME280;47967;51.756;10.174;2023-12-20T18:14:37;99066.91;;;5.21;100.00
62011;BME280;47967;51.756;10.174;2023-12-20T18:18:41;99048.00;;;5.22;100.00
62011;BME280;47967;51.756;10.174;2023-12-20T18:22:44;99053.53;;;5.21;100.00
62011;BME280;47967;51.756;10.174;2023-12-20T18:26:47;99054.75;;;5.18;100.00
62011;BME280;47967;51.756;10.174;2023-12-20T18:30:49;99053.75;;;5.19;100.00
62011;BME280;47967;51.756;10.174;2023-12-20T18:34:53;99039.16;;;5.22;100.00
62011;BME280;47967;51.756;10.174;2023-12-20T18:38:56;99054.88;;;5.25;100.00
62011;BME280;47967;51.756;10.174;2023-12-20T18:42:59;99045.19;;;5.24;100.00
62011;BME280;47967;51.756;10.174;2023-12-20T18:47:03;99034.63;;;5.22;100.00
62011;BME280;47967;51.756;10.174;2023-12-20T18:51:08;99036.59;;;5.28;100.00
62011;BME280;47967;51.756;10.174;2023-12-20T18:55:11;99030.41;;;5.28;100.00
62011;BME280;47967;51.756;10.174;2023-12-20T18:59:13;99034.94;;;5.27;100.00
62011;BME280;47967;51.756;10.174;2023-12-20T19:03:18;99019.53;;;5.29;100.00
62011;BME280;47967;51.756;10.174;2023-12-20T19:07:22;99017.31;;;5.33;100.00
62011;BME280;47967;51.756;10.174;2023-12-20T19:11:25;99010.19;;;5.40;100.00
62011;BME280;47967;51.756;10.174;2023-12-20T19:15:27;99008.00;;;5.44;100.00
62011;BME280;47967;51.756;10.174;2023-12-20T19:19:30;99004.75;;;5.49;100.00
62011;BME280;47967;51.756;10.174;2023-12-20T19:23:34;98991.19;;;5.50;100.00
62011;BME280;47967;51.756;10.174;2023-12-20T19:27:38;98985.28;;;5.55;100.00
62011;BME280;47967;51.756;10.174;2023-12-20T19:31:41;98974.59;;;5.55;100.00
62011;BME280;47967;51.756;10.174;2023-12-20T19:35:44;98969.50;;;5.60;100.00
62011;BME280;47967;51.756;10.174;2023-12-20T19:39:50;98962.63;;;5.72;100.00
62011;BME280;47967;51.756;10.174;2023-12-20T19:43:53;98954.88;;;5.77;100.00
62011;BME280;47967;51.756;10.174;2023-12-20T19:47:59;98951.81;;;5.81;100.00
62011;BME280;47967;51.756;10.174;2023-12-20T19:52:02;98944.50;;;5.89;100.00
62011;BME280;47967;51.756;10.174;2023-12-20T19:56:07;98935.44;;;5.90;100.00
62011;BME280;47967;51.756;10.174;2023-12-20T20:00:11;98925.84;;;5.96;100.00
62011;BME280;47967;51.756;10.174;2023-12-20T20:04:14;98915.31;;;5.95;100.00
62011;BME280;47967;51.756;10.174;2023-12-20T20:08:20;98919.28;;;5.99;100.00
62011;BME280;47967;51.756;10.174;2023-12-20T20:12:24;98917.44;;;5.99;100.00
62011;BME280;47967;51.756;10.174;2023-12-20T20:16:26;98911.72;;;6.02;100.00
62011;BME280;47967;51.756;10.174;2023-12-20T20:20:29;98902.47;;;6.05;100.00
62011;BME280;47967;51.756;10.174;2023-12-20T20:24:32;98892.59;;;6.05;100.00
62011;BME280;47967;51.756;10.174;2023-12-20T20:28:36;98890.75;;;6.06;100.00
62011;BME280;47967;51.756;10.174;2023-12-20T20:32:38;98884.66;;;5.97;100.00
62011;BME280;47967;51.756;10.174;2023-12-20T20:36:41;98872.28;;;5.96;100.00
62011;BME280;47967;51.756;10.174;2023-12-20T20:40:44;98859.09;;;5.95;100.00
62011;BME280;47967;51.756;10.174;2023-12-20T20:44:50;98852.91;;;5.94;100.00
62011;BME280;47967;51.756;10.174;2023-12-20T20:48:52;98848.53;;;5.86;100.00
62011;BME280;47967;51.756;10.174;2023-12-20T20:52:56;98836.78;;;5.87;100.00
62011;BME280;47967;51.756;10.174;2023-12-20T20:56:59;98826.25;;;5.86;100.00
62011;BME280;47967;51.756;10.174;2023-12-20T21:01:03;98819.06;;;5.86;100.00
62011;BME280;47967;51.756;10.174;2023-12-20T21:05:07;98805.50;;;5.88;100.00
62011;BME280;47967;51.756;10.174;2023-12-20T21:09:10;98800.97;;;5.88;100.00
62011;BME280;47967;51.756;10.174;2023-12-20T21:13:13;98798.75;;;5.92;100.00
62011;BME280;47967;51.756;10.174;2023-12-20T21:17:17;98792.78;;;5.97;100.00
62011;BME280;47967;51.756;10.174;2023-12-20T21:21:19;98785.50;;;6.05;100.00
62011;BME280;47967;51.756;10.174;2023-12-20T21:25:22;98783.84;;;6.04;100.00
62011;BME280;47967;51.756;10.174;2023-12-20T21:29:25;98786.50;;;6.04;100.00
62011;BME280;47967;51.756;10.174;2023-12-20T21:33:29;98769.44;;;6.05;100.00
62011;BME280;47967;51.756;10.174;2023-12-20T21:37:32;98760.34;;;6.06;100.00
62011;BME280;47967;51.756;10.174;2023-12-20T21:41:34;98753.16;;;6.07;100.00
62011;BME280;47967;51.756;10.174;2023-12-20T21:45:37;98751.94;;;6.09;100.00
62011;BME280;47967;51.756;10.174;2023-12-20T21:49:41;98744.91;;;6.08;100.00
62011;BME280;47967;51.756;10.174;2023-12-20T21:53:44;98738.53;;;6.09;100.00
62011;BME280;47967;51.756;10.174;2023-12-20T21:57:47;98727.25;;;6.14;100.00
